Time;durP1;ratioP1;P1;durP2;ratioP2;P2;SDS_P1;SDS_P2;PMS_P1;PMS_P2;Temp;Humidity;BMP_temperature;BMP_pressure;BME280_temperature;BME280_humidity;BME280_pressure;Samples;Min_cycle;Max_cycle;Signal;HPM_P1;HPM_P2
2023/04/10 00:02:19;;;;;;;16.93;14.77;;;9.50;99.90;;;;;;5015173;28;20175;-76
2023/04/10 00:04:45;;;;;;;16.70;14.10;;;9.30;99.90;;;;;;5014582;28;20202;-77
2023/04/10 00:07:11;;;;;;;16.80;14.00;;;9.40;99.90;;;;;;5020706;28;20182;-76
2023/04/10 00:09:37;;;;;;;16.60;14.50;;;9.30;99.90;;;;;;5025203;28;20297;-76
2023/04/10 00:12:03;;;;;;;18.03;14.90;;;9.40;99.90;;;;;;5020987;28;20731;-76
2023/04/10 00:14:29;;;;;;;17.60;15.30;;;9.30;99.90;;;;;;5021141;28;20481;-77
2023/04/10 00:16:54;;;;;;;19.23;15.13;;;9.50;99.90;;;;;;5013421;28;20802;-76
2023/04/10 00:19:20;;;;;;;16.77;14.97;;;9.60;99.90;;;;;;5014135;28;20294;-76
2023/04/10 00:21:46;;;;;;;17.97;15.10;;;9.40;99.90;;;;;;4994855;28;20232;-77
2023/04/10 00:24:12;;;;;;;19.87;17.10;;;9.20;99.90;;;;;;5022683;28;20181;-77
2023/04/10 00:26:37;;;;;;;20.77;16.33;;;9.10;99.90;;;;;;5013468;28;20199;-77
2023/04/10 00:29:03;;;;;;;17.83;15.60;;;9.40;99.90;;;;;;5008324;28;20760;-76
2023/04/10 00:31:30;;;;;;;18.50;16.17;;;9.30;99.90;;;;;;5009648;28;20541;-77
2023/04/10 00:33:56;;;;;;;19.10;16.10;;;8.90;99.90;;;;;;5009535;28;20210;-77
2023/04/10 00:36:22;;;;;;;18.40;16.50;;;9.00;99.90;;;;;;5009832;28;20417;-76
2023/04/10 00:38:48;;;;;;;18.87;16.87;;;8.80;99.90;;;;;;5009338;28;20191;-76
2023/04/10 00:41:14;;;;;;;18.60;16.17;;;8.90;99.90;;;;;;5009517;28;20466;-77
2023/04/10 00:43:40;;;;;;;22.37;18.30;;;8.90;99.90;;;;;;5008092;28;20905;-77
2023/04/10 00:46:06;;;;;;;21.93;17.33;;;8.90;99.90;;;;;;5009819;28;20453;-77
2023/04/10 00:48:32;;;;;;;17.80;15.90;;;8.90;99.90;;;;;;5009465;28;20274;-76
2023/04/10 00:50:59;;;;;;;21.03;18.17;;;8.80;99.90;;;;;;5009299;28;20214;-76
2023/04/10 00:53:25;;;;;;;19.80;16.67;;;8.80;99.90;;;;;;5009025;28;21001;-77
2023/04/10 00:55:51;;;;;;;21.70;17.70;;;8.80;99.90;;;;;;5009633;28;20418;-77
2023/04/10 00:58:17;;;;;;;24.27;18.80;;;8.90;99.90;;;;;;5009459;28;20418;-77
2023/04/10 01:00:43;;;;;;;24.57;19.40;;;8.90;99.90;;;;;;5009296;28;20989;-77
2023/04/10 01:03:11;;;;;;;21.50;17.27;;;8.70;99.90;;;;;;5009238;28;20278;-77
2023/04/10 01:06:18;;;;;;;22.33;17.57;;;8.70;99.90;;;;;;5009595;28;20187;-77
2023/04/10 01:09:02;;;;;;;23.20;18.10;;;8.70;99.90;;;;;;5009050;28;20426;-77
2023/04/10 01:11:52;;;;;;;20.90;16.97;;;8.90;99.90;;;;;;5008046;28;20425;-77
2023/04/10 01:14:46;;;;;;;18.80;15.80;;;8.70;99.90;;;;;;5009564;28;20536;-77
2023/04/10 01:17:28;;;;;;;21.80;17.30;;;8.60;99.90;;;;;;5009133;28;20456;-77
2023/04/10 01:20:06;;;;;;;27.57;17.40;;;8.70;99.90;;;;;;5009270;28;20805;-76
2023/04/10 01:22:40;;;;;;;20.77;17.73;;;8.70;99.90;;;;;;5009420;28;20421;-77
2023/04/10 01:25:18;;;;;;;20.93;17.47;;;8.60;99.90;;;;;;5009321;28;20413;-77
2023/04/10 01:28:18;;;;;;;21.77;18.00;;;8.70;99.90;;;;;;5007816;28;21104;-76
2023/04/10 01:30:46;;;;;;;22.73;18.57;;;8.70;99.90;;;;;;5007937;28;20437;-76
2023/04/10 01:33:16;;;;;;;23.37;18.23;;;8.60;99.90;;;;;;5007184;28;20818;-77
2023/04/10 01:35:46;;;;;;;23.00;18.90;;;8.60;99.90;;;;;;5002537;28;20444;-77
2023/04/10 01:38:16;;;;;;;21.30;18.50;;;8.60;99.90;;;;;;4996444;28;20534;-77
2023/04/10 01:40:48;;;;;;;20.63;17.20;;;8.60;99.90;;;;;;4993174;28;20438;-77
2023/04/10 01:43:15;;;;;;;22.00;18.40;;;8.70;99.90;;;;;;4993191;28;20776;-77
2023/04/10 01:45:43;;;;;;;20.23;16.87;;;8.80;99.90;;;;;;5010568;28;20606;-76
2023/04/10 01:48:10;;;;;;;20.13;17.13;;;8.70;99.90;;;;;;5011439;28;21073;-77
2023/04/10 01:50:37;;;;;;;18.73;16.13;;;8.90;99.90;;;;;;5012585;28;20429;-77
2023/04/10 01:53:05;;;;;;;20.67;17.10;;;8.60;99.90;;;;;;5012610;28;20406;-77
2023/04/10 01:55:32;;;;;;;19.10;16.50;;;8.60;99.90;;;;;;5012716;28;20811;-76
2023/04/10 01:57:59;;;;;;;18.80;15.60;;;8.50;99.90;;;;;;5012320;28;20402;-77
2023/04/10 02:00:26;;;;;;;18.73;15.70;;;8.50;99.90;;;;;;5012411;28;20440;-77
2023/04/10 02:02:52;;;;;;;18.17;14.80;;;8.50;99.90;;;;;;5012447;28;20425;-76
2023/04/10 02:05:18;;;;;;;18.77;15.20;;;8.50;99.90;;;;;;5012474;28;20509;-77
2023/04/10 02:07:59;;;;;;;17.00;14.70;;;8.50;99.90;;;;;;5010894;28;20505;-77
2023/04/10 02:10:57;;;;;;;17.93;13.97;;;8.50;99.90;;;;;;5012265;28;20481;-76
2023/04/10 02:13:26;;;;;;;17.87;14.10;;;8.50;99.90;;;;;;5010612;28;20458;-77
2023/04/10 02:15:55;;;;;;;17.00;13.50;;;8.90;99.90;;;;;;5012525;28;20468;-77
2023/04/10 02:18:22;;;;;;;16.00;13.33;;;8.70;99.90;;;;;;5011925;28;20418;-77
2023/04/10 02:20:48;;;;;;;18.73;15.10;;;8.60;99.90;;;;;;5010799;28;20822;-76
2023/04/10 02:23:19;;;;;;;17.87;14.17;;;8.70;99.90;;;;;;5011845;28;20476;-77
2023/04/10 02:25:45;;;;;;;17.10;14.17;;;8.60;99.90;;;;;;5012382;28;20434;-77
2023/04/10 02:28:10;;;;;;;15.07;13.40;;;8.60;99.90;;;;;;5011718;28;20788;-76
2023/04/10 02:30:38;;;;;;;17.63;13.50;;;8.70;99.90;;;;;;4994171;28;20291;-77
2023/04/10 02:33:03;;;;;;;15.50;12.13;;;8.70;99.90;;;;;;5010490;28;20517;-76
2023/04/10 02:35:29;;;;;;;14.70;13.00;;;8.80;99.90;;;;;;5010704;28;20556;-77
2023/04/10 02:37:55;;;;;;;15.80;12.67;;;8.80;99.90;;;;;;5010323;28;20422;-77
2023/04/10 02:40:21;;;;;;;18.00;13.90;;;8.90;99.90;;;;;;5011759;28;20199;-77
2023/04/10 02:42:47;;;;;;;15.83;12.60;;;8.80;99.90;;;;;;5011868;28;20485;-76
2023/04/10 02:45:12;;;;;;;14.60;12.27;;;8.50;99.90;;;;;;5011537;28;20186;-77
2023/04/10 02:47:38;;;;;;;14.63;12.50;;;8.60;99.90;;;;;;5011375;28;20190;-77
2023/04/10 02:50:04;;;;;;;13.67;12.13;;;8.90;99.90;;;;;;5011597;28;20212;-76
2023/04/10 02:52:30;;;;;;;12.60;10.93;;;8.80;99.90;;;;;;5011680;28;20720;-76
2023/04/10 02:54:56;;;;;;;14.27;12.23;;;8.80;99.90;;;;;;5011304;28;20453;-76
2023/04/10 02:57:21;;;;;;;16.17;12.63;;;8.80;99.90;;;;;;5011226;28;20185;-76
2023/04/10 02:59:50;;;;;;;13.20;11.80;;;8.90;99.90;;;;;;5009842;28;20273;-77
2023/04/10 03:02:16;;;;;;;14.43;11.10;;;8.80;99.90;;;;;;5011715;28;20171;-76
2023/04/10 03:04:42;;;;;;;13.50;11.30;;;9.00;99.90;;;;;;5011155;28;20429;-77
2023/04/10 03:07:08;;;;;;;14.30;11.10;;;8.80;99.90;;;;;;5011343;28;20190;-76
2023/04/10 03:09:34;;;;;;;12.50;10.50;;;8.90;99.90;;;;;;5010946;28;20217;-77
2023/04/10 03:12:00;;;;;;;12.20;10.60;;;8.80;99.90;;;;;;5011391;28;20771;-77
2023/04/10 03:14:27;;;;;;;11.93;10.57;;;8.80;99.90;;;;;;5010950;28;20218;-76
2023/04/10 03:16:52;;;;;;;13.53;10.90;;;8.80;99.90;;;;;;5010895;28;20420;-76
2023/04/10 03:19:18;;;;;;;12.30;11.00;;;8.80;99.90;;;;;;5010915;28;20446;-76
2023/04/10 03:21:45;;;;;;;11.70;9.97;;;8.90;99.90;;;;;;5011218;28;20183;-77
2023/04/10 03:24:10;;;;;;;11.90;10.70;;;8.90;99.90;;;;;;5010623;28;20265;-76
2023/04/10 03:26:36;;;;;;;11.60;9.80;;;8.80;99.90;;;;;;5026404;28;20418;-77
2023/04/10 03:29:02;;;;;;;11.33;10.13;;;9.00;99.90;;;;;;5010451;28;20184;-75
2023/04/10 03:31:28;;;;;;;13.10;10.93;;;8.90;99.90;;;;;;5010932;28;20596;-77
2023/04/10 03:33:54;;;;;;;12.43;9.50;;;8.90;99.90;;;;;;5010534;28;20454;-76
2023/04/10 03:36:20;;;;;;;12.87;10.43;;;9.00;99.90;;;;;;5009554;28;20421;-76
2023/04/10 03:38:45;;;;;;;12.80;9.40;;;8.90;99.90;;;;;;5025665;28;20898;-77
2023/04/10 03:41:11;;;;;;;12.33;10.10;;;8.80;99.90;;;;;;5025482;28;20203;-76
2023/04/10 03:43:38;;;;;;;12.40;10.03;;;8.80;99.90;;;;;;5009822;28;20189;-77
2023/04/10 03:46:04;;;;;;;13.83;10.20;;;9.00;99.90;;;;;;4991233;28;20184;-76
2023/04/10 03:48:31;;;;;;;10.10;9.03;;;8.80;99.90;;;;;;5006185;28;20426;-76
2023/04/10 03:50:57;;;;;;;10.93;9.70;;;9.10;99.90;;;;;;4991763;28;20446;-76
2023/04/10 03:53:23;;;;;;;10.40;9.20;;;8.80;99.90;;;;;;4993185;28;20445;-77
2023/04/10 03:55:48;;;;;;;9.57;8.57;;;8.90;99.90;;;;;;4994500;28;20502;-76
2023/04/10 03:58:14;;;;;;;10.73;9.17;;;9.10;99.90;;;;;;4998933;28;20477;-77
2023/04/10 04:00:40;;;;;;;10.17;9.07;;;9.00;99.90;;;;;;5011811;28;20568;-77
2023/04/10 04:03:05;;;;;;;10.70;8.80;;;8.90;99.90;;;;;;4996758;28;20203;-76
2023/04/10 04:05:31;;;;;;;10.47;9.00;;;9.00;99.90;;;;;;4991070;28;20186;-77
2023/04/10 04:07:57;;;;;;;11.23;9.07;;;9.00;99.90;;;;;;4996662;28;20936;-78
2023/04/10 04:10:23;;;;;;;13.93;9.57;;;9.00;99.90;;;;;;4998414;28;20230;-77
2023/04/10 04:12:49;;;;;;;10.43;8.30;;;8.90;99.90;;;;;;5006036;28;20190;-77
2023/04/10 04:15:15;;;;;;;11.67;9.37;;;9.00;99.90;;;;;;5009818;28;20996;-77
2023/04/10 04:17:41;;;;;;;9.43;8.10;;;9.20;99.90;;;;;;5009987;28;20429;-77
2023/04/10 04:20:07;;;;;;;10.40;8.40;;;9.00;99.90;;;;;;5009832;28;20422;-77
2023/04/10 04:22:33;;;;;;;10.30;8.73;;;9.10;99.90;;;;;;5010330;28;20418;-77
2023/04/10 04:24:58;;;;;;;11.10;9.13;;;9.10;99.90;;;;;;5009635;28;20421;-77
2023/04/10 04:27:24;;;;;;;10.93;8.30;;;9.10;99.90;;;;;;5009938;28;20278;-77
2023/04/10 04:29:50;;;;;;;10.07;8.53;;;9.10;99.90;;;;;;5009612;28;20207;-77
2023/04/10 04:32:15;;;;;;;10.73;8.73;;;8.90;99.90;;;;;;5010158;28;20791;-77
2023/04/10 04:34:41;;;;;;;10.40;8.13;;;9.00;99.90;;;;;;5024690;28;20253;-77
2023/04/10 04:37:07;;;;;;;9.83;8.83;;;9.10;99.90;;;;;;5009753;28;20590;-77
2023/04/10 04:39:32;;;;;;;9.60;7.90;;;9.00;99.90;;;;;;5007829;28;20269;-76
2023/04/10 04:41:58;;;;;;;9.77;8.77;;;9.00;99.90;;;;;;5009081;28;20237;-78
2023/04/10 04:44:24;;;;;;;10.57;8.87;;;9.00;99.90;;;;;;5007622;28;20189;-77
2023/04/10 04:46:49;;;;;;;10.50;8.37;;;8.80;99.90;;;;;;5008819;28;20263;-76
2023/04/10 04:49:15;;;;;;;11.23;8.33;;;9.00;99.90;;;;;;5009026;28;20186;-76
2023/04/10 04:51:41;;;;;;;10.60;8.83;;;9.00;99.90;;;;;;5008923;28;20187;-77
2023/04/10 04:54:06;;;;;;;11.17;9.07;;;8.90;99.90;;;;;;5008319;28;20265;-77
2023/04/10 04:56:32;;;;;;;10.17;9.07;;;8.90;99.90;;;;;;5009056;28;20541;-78
2023/04/10 04:58:57;;;;;;;12.77;9.47;;;8.80;99.90;;;;;;5008460;28;20186;-76
2023/04/10 05:01:23;;;;;;;11.83;9.40;;;9.10;99.90;;;;;;5008765;28;20713;-77
2023/04/10 05:03:49;;;;;;;9.90;8.70;;;8.90;99.90;;;;;;5008517;28;20234;-76
2023/04/10 05:06:17;;;;;;;10.93;8.57;;;8.90;99.90;;;;;;5008901;28;20415;-77
2023/04/10 05:08:43;;;;;;;10.50;9.23;;;9.10;99.90;;;;;;5008651;28;20183;-76
2023/04/10 05:11:09;;;;;;;12.10;9.20;;;9.10;99.90;;;;;;5007367;28;20495;-77
2023/04/10 05:13:34;;;;;;;10.47;8.93;;;9.00;99.90;;;;;;5011627;28;20953;-77
2023/04/10 05:16:00;;;;;;;11.33;9.10;;;9.20;99.90;;;;;;5002947;28;20283;-77
2023/04/10 05:18:26;;;;;;;10.43;9.17;;;8.90;99.90;;;;;;5007492;28;20186;-76
2023/04/10 05:20:52;;;;;;;11.40;9.57;;;9.00;99.90;;;;;;5027063;28;20195;-76
2023/04/10 05:23:18;;;;;;;10.10;8.23;;;8.90;99.90;;;;;;5007345;28;20445;-77
2023/04/10 05:25:43;;;;;;;9.60;7.80;;;8.90;99.90;;;;;;5008847;28;20202;-77
2023/04/10 05:28:09;;;;;;;9.47;8.10;;;9.10;99.90;;;;;;5002781;28;20220;-77
2023/04/10 05:30:35;;;;;;;11.27;8.97;;;8.90;99.90;;;;;;4993578;28;20210;-76
2023/04/10 05:33:00;;;;;;;9.00;7.83;;;9.00;99.90;;;;;;5011429;28;20191;-77
2023/04/10 05:35:26;;;;;;;9.20;8.30;;;9.10;99.90;;;;;;5008145;28;20215;-77
2023/04/10 05:37:51;;;;;;;10.20;8.40;;;9.10;99.90;;;;;;4973444;28;1090845;-76
2023/04/10 05:40:17;;;;;;;11.40;8.73;;;9.10;99.90;;;;;;5012643;28;20190;-77
2023/04/10 05:42:43;;;;;;;10.20;8.67;;;9.20;99.90;;;;;;5012569;28;20183;-77
2023/04/10 05:45:09;;;;;;;10.67;8.10;;;9.20;99.90;;;;;;5011503;28;20253;-77
2023/04/10 05:47:35;;;;;;;8.43;7.63;;;9.20;99.90;;;;;;5004391;28;20180;-76
2023/04/10 05:50:00;;;;;;;8.83;7.80;;;9.40;99.90;;;;;;4998812;28;20445;-77
2023/04/10 05:52:26;;;;;;;9.87;8.10;;;9.30;99.90;;;;;;4999543;28;20265;-76
2023/04/10 05:54:52;;;;;;;9.07;7.80;;;9.30;99.90;;;;;;5010629;28;20217;-76
2023/04/10 05:57:17;;;;;;;8.47;7.23;;;9.50;99.90;;;;;;5012288;28;20318;-76
2023/04/10 05:59:43;;;;;;;10.07;8.57;;;9.40;99.90;;;;;;5019498;28;20619;-76
2023/04/10 06:02:08;;;;;;;8.77;7.87;;;9.60;99.90;;;;;;5020454;28;20707;-76
2023/04/10 06:04:34;;;;;;;10.13;8.30;;;9.50;99.90;;;;;;5019898;28;20680;-76
2023/04/10 06:07:00;;;;;;;8.77;7.87;;;9.70;99.90;;;;;;5013970;28;20219;-77
2023/04/10 06:09:25;;;;;;;9.00;7.27;;;9.80;99.90;;;;;;5018564;28;20203;-76
2023/04/10 06:11:52;;;;;;;7.87;6.70;;;9.90;99.90;;;;;;5008437;28;20596;-76
2023/04/10 06:14:18;;;;;;;8.80;7.57;;;10.00;99.90;;;;;;5012500;28;20297;-77
2023/04/10 06:16:44;;;;;;;9.40;7.60;;;10.10;99.90;;;;;;5014990;28;20450;-76
2023/04/10 06:19:10;;;;;;;9.30;7.03;;;10.20;99.90;;;;;;5015814;28;20918;-76
2023/04/10 06:21:36;;;;;;;9.27;6.90;;;10.40;99.90;;;;;;5019264;28;20606;-76
2023/04/10 06:24:01;;;;;;;7.60;6.70;;;10.50;99.90;;;;;;5022140;28;20446;-76
2023/04/10 06:26:27;;;;;;;7.67;6.83;;;10.60;99.90;;;;;;5019128;28;20199;-76
2023/04/10 06:28:53;;;;;;;9.00;7.10;;;10.80;99.90;;;;;;5010716;28;20242;-76
2023/04/10 06:31:22;;;;;;;7.70;6.87;;;10.80;99.60;;;;;;5009202;28;20240;-77
2023/04/10 06:33:49;;;;;;;8.17;7.03;;;10.80;99.60;;;;;;5005688;28;20227;-77
2023/04/10 06:36:15;;;;;;;8.30;7.30;;;10.90;99.40;;;;;;4996438;28;20430;-77
2023/04/10 06:38:41;;;;;;;7.33;6.60;;;11.00;99.20;;;;;;5010839;28;20557;-76
2023/04/10 06:41:07;;;;;;;7.30;6.50;;;11.00;99.20;;;;;;5011774;28;20438;-76
2023/04/10 06:43:39;;;;;;;7.20;6.50;;;11.10;99.10;;;;;;5019160;28;20441;-76
2023/04/10 06:46:05;;;;;;;7.60;6.23;;;11.10;99.00;;;;;;5005346;28;20445;-77
2023/04/10 06:48:31;;;;;;;7.97;7.17;;;11.20;99.20;;;;;;5016563;28;20441;-77
2023/04/10 06:50:59;;;;;;;7.63;6.37;;;11.20;98.80;;;;;;5013558;28;20438;-76
2023/04/10 06:53:26;;;;;;;6.90;5.83;;;11.20;98.70;;;;;;5018611;28;20524;-76
2023/04/10 06:55:51;;;;;;;7.43;6.70;;;11.30;98.60;;;;;;5010709;28;20465;-76
2023/04/10 06:58:17;;;;;;;8.10;6.43;;;11.30;99.10;;;;;;5006171;28;21057;-77
2023/04/10 07:00:43;;;;;;;6.33;5.73;;;11.30;98.30;;;;;;5007287;28;20465;-76
2023/04/10 07:03:08;;;;;;;7.30;6.57;;;11.40;98.70;;;;;;5000947;28;20258;-76
2023/04/10 07:05:34;;;;;;;7.37;6.17;;;11.40;98.10;;;;;;5000940;28;20192;-77
2023/04/10 07:08:00;;;;;;;6.43;5.73;;;11.60;98.50;;;;;;4999830;28;20184;-76
2023/04/10 07:10:26;;;;;;;7.50;6.70;;;11.70;98.20;;;;;;5009432;28;20294;-77
2023/04/10 07:12:51;;;;;;;5.93;5.33;;;11.70;97.90;;;;;;5011554;28;20191;-77
2023/04/10 07:15:17;;;;;;;8.10;6.40;;;11.90;97.70;;;;;;5000757;28;20215;-77
2023/04/10 07:17:43;;;;;;;6.87;6.17;;;12.00;97.60;;;;;;5006112;28;20175;-77
2023/04/10 07:20:10;;;;;;;5.77;5.17;;;12.10;96.60;;;;;;4994679;28;20195;-77
2023/04/10 07:22:36;;;;;;;6.97;5.87;;;12.10;96.70;;;;;;5011401;28;20419;-77
2023/04/10 07:25:09;;;;;;;7.30;6.17;;;12.10;96.70;;;;;;4993533;28;20425;-77
2023/04/10 07:27:35;;;;;;;5.97;5.27;;;12.20;96.60;;;;;;4994989;28;20585;-77
2023/04/10 07:30:00;;;;;;;7.70;6.13;;;12.20;95.90;;;;;;4994789;28;20437;-77
2023/04/10 07:32:26;;;;;;;6.13;5.40;;;12.20;95.70;;;;;;5011320;28;20193;-76
2023/04/10 07:34:52;;;;;;;6.70;6.10;;;12.20;96.20;;;;;;5008523;28;20664;-77
2023/04/10 07:37:17;;;;;;;5.97;5.13;;;12.20;95.70;;;;;;5011334;28;20175;-77
2023/04/10 07:39:44;;;;;;;6.67;5.87;;;12.30;95.30;;;;;;5011697;28;20223;-76
2023/04/10 07:42:10;;;;;;;5.97;4.90;;;12.20;95.40;;;;;;5012142;28;20182;-77
2023/04/10 07:44:36;;;;;;;7.40;5.80;;;12.20;95.50;;;;;;5011456;28;20438;-77
2023/04/10 07:47:02;;;;;;;5.67;5.07;;;12.30;95.50;;;;;;5011935;28;20414;-77
2023/04/10 07:49:28;;;;;;;5.80;5.20;;;12.30;94.50;;;;;;5011864;28;20570;-77
2023/04/10 07:51:54;;;;;;;5.93;5.33;;;12.30;94.70;;;;;;5011993;28;20414;-77
2023/04/10 07:54:20;;;;;;;6.03;5.00;;;12.40;95.20;;;;;;5011398;28;20277;-77
2023/04/10 07:56:45;;;;;;;5.87;5.27;;;12.50;95.10;;;;;;5009599;28;20402;-78
2023/04/10 07:59:11;;;;;;;5.47;4.97;;;12.50;95.00;;;;;;5011449;28;20422;-77
2023/04/10 08:01:37;;;;;;;6.37;5.50;;;12.50;94.40;;;;;;5011646;28;20648;-78
2023/04/10 08:04:03;;;;;;;5.60;5.03;;;12.60;94.70;;;;;;5009947;28;20191;-78
2023/04/10 08:06:30;;;;;;;5.30;4.80;;;12.60;94.20;;;;;;5009192;28;20183;-77
2023/04/10 08:08:56;;;;;;;5.20;4.70;;;12.60;94.10;;;;;;5025252;28;20450;-77
2023/04/10 08:11:32;;;;;;;6.07;5.13;;;12.60;93.80;;;;;;5025524;28;20464;-77
2023/04/10 08:14:04;;;;;;;5.40;4.90;;;12.60;93.50;;;;;;5025272;28;20269;-77
2023/04/10 08:16:32;;;;;;;5.90;4.90;;;12.60;93.40;;;;;;5010228;28;20806;-76
2023/04/10 08:18:59;;;;;;;5.40;4.57;;;12.60;92.90;;;;;;5006154;28;20521;-77
2023/04/10 08:21:27;;;;;;;5.70;4.40;;;12.60;93.60;;;;;;5005945;28;20927;-77
2023/04/10 08:23:54;;;;;;;4.97;4.40;;;12.70;93.20;;;;;;5001785;28;20501;-77
2023/04/10 08:26:20;;;;;;;4.97;4.37;;;12.70;93.40;;;;;;5017148;28;21009;-77
2023/04/10 08:28:49;;;;;;;5.00;4.50;;;12.80;93.50;;;;;;5020141;28;20515;-77
2023/04/10 08:31:18;;;;;;;5.20;4.70;;;12.80;92.60;;;;;;5029277;28;20932;-77
2023/04/10 08:33:44;;;;;;;5.50;4.70;;;12.90;92.20;;;;;;5018368;28;20512;-77
2023/04/10 08:36:11;;;;;;;4.80;4.30;;;12.90;92.20;;;;;;5007897;28;20517;-79
2023/04/10 08:38:38;;;;;;;4.40;4.00;;;13.00;92.60;;;;;;5014548;28;20442;-79
2023/04/10 08:41:05;;;;;;;4.90;4.50;;;13.00;92.60;;;;;;5015163;28;20437;-78
2023/04/10 08:43:31;;;;;;;5.30;4.77;;;13.10;92.60;;;;;;5011741;28;20429;-78
2023/04/10 08:45:57;;;;;;;4.37;3.97;;;13.10;92.80;;;;;;5016169;28;20418;-79
2023/04/10 08:48:30;;;;;;;4.63;4.23;;;13.20;92.90;;;;;;5015977;28;20805;-80
2023/04/10 08:50:59;;;;;;;4.30;3.90;;;13.30;93.20;;;;;;5010746;28;20438;-79
2023/04/10 08:53:29;;;;;;;5.50;4.40;;;13.40;92.90;;;;;;5018673;28;20414;-79
2023/04/10 08:55:55;;;;;;;4.63;4.00;;;13.40;91.70;;;;;;5008186;28;20822;-79
2023/04/10 08:58:22;;;;;;;4.60;4.00;;;13.50;91.70;;;;;;5022809;28;20410;-79
2023/04/10 09:00:48;;;;;;;4.40;4.00;;;13.60;91.40;;;;;;5017537;28;20502;-78
2023/04/10 09:03:14;;;;;;;4.20;3.60;;;13.70;91.30;;;;;;5015475;28;20441;-78
2023/04/10 09:05:40;;;;;;;4.43;4.03;;;13.70;89.30;;;;;;5022404;28;20178;-78
2023/04/10 09:08:07;;;;;;;3.80;3.40;;;13.80;87.90;;;;;;5011617;28;20441;-79
2023/04/10 09:10:33;;;;;;;3.40;3.10;;;13.90;88.00;;;;;;5015405;28;20213;-78
2023/04/10 09:12:59;;;;;;;4.80;4.03;;;13.90;87.10;;;;;;5017961;28;20414;-76
2023/04/10 09:15:24;;;;;;;3.60;3.30;;;13.90;86.90;;;;;;5025023;28;20710;-79
2023/04/10 09:18:01;;;;;;;3.50;3.20;;;14.00;86.70;;;;;;5020220;28;20426;-78
2023/04/10 09:20:31;;;;;;;4.43;3.60;;;14.10;86.70;;;;;;5010005;28;20251;-78
2023/04/10 09:22:57;;;;;;;5.00;3.53;;;14.10;83.20;;;;;;5014529;28;20879;-78
2023/04/10 09:25:39;;;;;;;3.60;3.30;;;14.10;83.40;;;;;;5014170;28;20809;-78
2023/04/10 09:28:07;;;;;;;3.23;2.90;;;14.10;79.40;;;;;;5016723;28;20432;-78
2023/04/10 09:30:34;;;;;;;5.63;2.80;;;14.20;80.60;;;;;;5012990;28;20462;-79
2023/04/10 09:33:00;;;;;;;3.90;2.87;;;14.20;80.90;;;;;;5018089;28;20992;-77
2023/04/10 09:35:36;;;;;;;4.20;3.80;;;14.30;79.50;;;;;;5014534;28;20461;-78
2023/04/10 09:38:16;;;;;;;3.37;3.07;;;14.40;79.90;;;;;;5015888;28;20410;-79
2023/04/10 09:40:42;;;;;;;3.20;2.90;;;14.40;79.20;;;;;;5014125;28;20448;-78
2023/04/10 09:43:27;;;;;;;3.60;3.30;;;14.50;81.20;;;;;;5012119;28;20417;-79
2023/04/10 09:45:55;;;;;;;3.93;3.53;;;14.60;82.30;;;;;;5014255;28;20571;-78
2023/04/10 09:48:23;;;;;;;3.03;2.80;;;14.60;80.80;;;;;;5015951;28;20848;-77
2023/04/10 09:50:49;;;;;;;2.90;2.67;;;14.60;79.50;;;;;;5017055;28;20429;-79
2023/04/10 09:53:18;;;;;;;3.87;3.47;;;14.60;77.10;;;;;;5014756;28;20424;-78
2023/04/10 09:55:45;;;;;;;4.73;3.90;;;14.60;78.10;;;;;;5019184;28;20818;-77
2023/04/10 09:58:12;;;;;;;3.10;2.80;;;14.60;77.10;;;;;;5011462;28;20445;-78
2023/04/10 10:00:42;;;;;;;3.63;3.23;;;14.70;76.90;;;;;;5016025;28;20448;-78
2023/04/10 10:03:16;;;;;;;3.77;3.37;;;14.70;77.80;;;;;;5019756;28;20418;-79
2023/04/10 10:05:44;;;;;;;3.70;3.00;;;14.80;76.70;;;;;;5018894;28;20421;-79
2023/04/10 10:08:11;;;;;;;3.23;2.93;;;14.80;78.50;;;;;;5020671;28;20504;-77
2023/04/10 10:10:44;;;;;;;3.40;3.10;;;14.90;78.10;;;;;;5020244;28;20791;-78
2023/04/10 10:13:16;;;;;;;2.97;2.67;;;14.90;78.10;;;;;;5014516;28;20533;-78
2023/04/10 10:15:57;;;;;;;3.70;3.20;;;14.90;75.20;;;;;;5020896;28;20503;-79
2023/04/10 10:18:41;;;;;;;3.40;2.70;;;15.00;75.00;;;;;;5026402;28;20418;-77
2023/04/10 10:21:09;;;;;;;3.70;3.20;;;15.00;74.00;;;;;;5012849;28;20569;-78
2023/04/10 10:23:36;;;;;;;3.97;3.67;;;15.00;76.10;;;;;;5019944;28;20756;-79
2023/04/10 10:26:07;;;;;;;4.17;3.47;;;15.00;75.90;;;;;;5017101;28;20418;-78
2023/04/10 10:28:35;;;;;;;3.60;3.30;;;15.00;76.70;;;;;;5022876;28;20695;-78
2023/04/10 10:31:03;;;;;;;3.87;3.40;;;15.00;75.70;;;;;;5018759;28;20951;-79
2023/04/10 10:33:29;;;;;;;3.90;3.27;;;15.00;75.60;;;;;;5016449;28;20445;-79
2023/04/10 10:36:02;;;;;;;3.67;3.37;;;15.00;76.60;;;;;;5019195;28;20461;-78
2023/04/10 10:38:29;;;;;;;3.93;3.30;;;15.10;75.30;;;;;;5012224;28;20476;-78
2023/04/10 10:41:23;;;;;;;3.30;2.90;;;15.00;75.50;;;;;;5008785;28;20430;-79
2023/04/10 10:44:10;;;;;;;3.73;3.43;;;15.00;74.70;;;;;;5010750;28;20828;-79
2023/04/10 10:46:49;;;;;;;3.73;3.40;;;15.10;75.90;;;;;;5009736;28;20477;-78
2023/04/10 10:49:15;;;;;;;3.50;3.20;;;15.20;75.50;;;;;;5014114;28;20445;-76
2023/04/10 10:51:49;;;;;;;3.50;3.17;;;15.30;79.00;;;;;;5007058;28;20415;-79
2023/04/10 10:54:32;;;;;;;3.50;3.20;;;15.40;77.50;;;;;;5005817;28;20211;-80
2023/04/10 10:56:58;;;;;;;4.40;3.50;;;15.50;75.40;;;;;;5014984;28;20954;-79
2023/04/10 10:59:42;;;;;;;3.20;2.90;;;15.50;74.60;;;;;;5014801;28;20440;-77
2023/04/10 11:02:12;;;;;;;3.20;2.90;;;15.60;76.10;;;;;;5008164;28;20416;-78
2023/04/10 11:04:45;;;;;;;3.43;3.00;;;15.50;74.60;;;;;;5010097;28;20422;-79
2023/04/10 11:07:12;;;;;;;3.70;3.27;;;15.60;77.20;;;;;;5012884;28;21107;-78
2023/04/10 11:09:48;;;;;;;4.90;4.10;;;15.60;77.60;;;;;;5017013;28;20439;-79
2023/04/10 11:12:22;;;;;;;3.20;3.00;;;15.70;75.70;;;;;;5012127;28;20431;-79
2023/04/10 11:15:02;;;;;;;3.40;2.97;;;15.70;72.00;;;;;;5021930;28;20559;-78
2023/04/10 11:17:50;;;;;;;3.50;3.20;;;15.70;71.70;;;;;;5008878;28;20402;-77
2023/04/10 11:20:19;;;;;;;3.77;3.47;;;15.70;73.10;;;;;;5005835;28;20453;-78
2023/04/10 11:23:11;;;;;;;4.03;3.63;;;15.70;74.20;;;;;;5009478;28;20422;-77
2023/04/10 11:25:51;;;;;;;3.70;3.40;;;15.70;75.10;;;;;;4993675;28;20418;-78
2023/04/10 11:28:32;;;;;;;3.33;3.03;;;15.70;75.10;;;;;;5005858;28;21028;-76
2023/04/10 11:31:21;;;;;;;3.80;3.43;;;15.80;77.20;;;;;;5022688;28;20957;-76
2023/04/10 11:33:48;;;;;;;5.10;3.63;;;15.80;76.20;;;;;;5010742;28;20432;-78
2023/04/10 11:36:18;;;;;;;3.77;3.30;;;15.80;75.90;;;;;;5012686;28;20510;-76
2023/04/10 11:39:07;;;;;;;4.33;3.90;;;15.90;74.90;;;;;;5011240;28;20440;-78
2023/04/10 11:41:35;;;;;;;4.60;3.57;;;15.90;76.60;;;;;;5001077;28;20422;-77
2023/04/10 11:44:03;;;;;;;4.50;4.10;;;15.90;74.80;;;;;;5001611;28;20433;-76
2023/04/10 11:46:29;;;;;;;3.50;3.20;;;16.00;74.70;;;;;;5010369;28;20424;-76
2023/04/10 11:48:59;;;;;;;6.33;3.60;;;16.00;74.80;;;;;;5007413;28;20428;-78
2023/04/10 11:51:26;;;;;;;3.70;3.30;;;16.00;74.50;;;;;;5022601;28;20902;-77
2023/04/10 11:54:11;;;;;;;3.47;3.17;;;16.00;74.70;;;;;;5001011;28;20464;-78
2023/04/10 11:56:38;;;;;;;3.50;3.20;;;16.00;75.30;;;;;;5006653;28;20411;-79
2023/04/10 11:59:09;;;;;;;3.60;3.30;;;16.10;73.70;;;;;;5010116;28;20430;-78
2023/04/10 12:01:36;;;;;;;3.33;3.03;;;16.10;73.60;;;;;;5009360;28;20427;-77
2023/04/10 12:04:02;;;;;;;3.53;3.20;;;16.20;73.90;;;;;;5013720;28;20907;-79
2023/04/10 12:06:28;;;;;;;3.53;3.23;;;16.10;72.30;;;;;;5013583;28;20414;-78
2023/04/10 12:08:54;;;;;;;3.33;3.03;;;16.10;73.00;;;;;;5016485;28;20410;-78
2023/04/10 12:11:21;;;;;;;4.17;3.77;;;16.20;74.80;;;;;;5024556;28;20813;-78
2023/04/10 12:13:51;;;;;;;3.70;3.40;;;16.20;74.20;;;;;;5016716;28;20446;-77
2023/04/10 12:16:17;;;;;;;3.53;3.23;;;16.20;72.40;;;;;;5013388;28;21007;-78
2023/04/10 12:18:44;;;;;;;3.00;2.80;;;16.30;72.50;;;;;;5008400;28;20577;-78
2023/04/10 12:21:10;;;;;;;4.93;3.20;;;16.30;71.10;;;;;;5019040;28;20442;-76
2023/04/10 12:23:40;;;;;;;3.40;3.10;;;16.30;68.30;;;;;;5012828;28;20422;-77
2023/04/10 12:26:10;;;;;;;3.13;2.83;;;16.30;69.60;;;;;;5012092;28;20774;-77
2023/04/10 12:28:37;;;;;;;3.40;2.93;;;16.30;69.00;;;;;;5009226;28;20450;-77
2023/04/10 12:31:03;;;;;;;5.70;3.43;;;16.30;68.30;;;;;;5009051;28;20488;-77
2023/04/10 12:33:29;;;;;;;3.00;2.67;;;16.30;68.90;;;;;;5011904;28;20441;-77
2023/04/10 12:35:55;;;;;;;2.83;2.30;;;16.40;68.20;;;;;;5011733;28;20467;-77
2023/04/10 12:38:41;;;;;;;2.90;2.67;;;16.30;69.90;;;;;;5012240;28;20191;-78
2023/04/10 12:41:08;;;;;;;2.97;2.70;;;16.40;68.40;;;;;;5014353;28;20281;-78
2023/04/10 12:43:39;;;;;;;2.97;2.77;;;16.40;68.60;;;;;;5017356;28;20970;-77
2023/04/10 12:46:05;;;;;;;2.33;2.13;;;16.40;67.30;;;;;;5016570;28;20402;-78
2023/04/10 12:48:31;;;;;;;3.30;2.50;;;16.50;68.10;;;;;;5010268;28;20436;-78
2023/04/10 12:50:57;;;;;;;2.47;2.27;;;16.50;67.40;;;;;;5033440;28;20422;-77
2023/04/10 12:53:23;;;;;;;3.20;2.90;;;16.60;68.20;;;;;;5028948;28;20270;-77